createdAt,value
2018-03-26T17:52:44.478Z,13.93
2018-03-26T17:55:12.713Z,12.50
2018-03-26T17:57:42.143Z,13.43
2018-03-26T18:00:09.665Z,17.73
2018-03-26T18:02:37.104Z,14.97
2018-03-26T18:05:04.574Z,23.00
2018-03-26T18:07:32.052Z,14.83
2018-03-26T18:09:59.589Z,16.83
2018-03-26T18:12:27.804Z,15.30
2018-03-26T18:14:55.327Z,17.53
2018-03-26T18:17:22.819Z,14.00
2018-03-26T18:19:51.123Z,13.80
2018-03-26T18:22:19.373Z,19.70
2018-03-26T18:24:46.870Z,25.40
2018-03-26T18:27:14.429Z,14.60
2018-03-26T18:29:41.895Z,15.10
2018-03-26T18:32:10.124Z,12.90
2018-03-26T18:34:37.653Z,26.97
2018-03-26T18:37:05.908Z,15.23
2018-03-26T18:39:33.393Z,14.70
2018-03-26T18:42:00.835Z,13.27
2018-03-26T18:44:28.393Z,14.40
2018-03-26T18:46:55.823Z,18.97
2018-03-26T18:49:23.271Z,18.30
2018-03-26T18:51:50.761Z,19.50
2018-03-26T18:54:18.537Z,19.53
2018-03-26T18:56:45.988Z,20.60
2018-03-26T18:59:13.448Z,20.80
2018-03-26T19:01:40.916Z,22.53
2018-03-26T19:04:08.359Z,19.33
2018-03-26T19:06:35.831Z,22.73
2018-03-26T19:09:03.272Z,18.70
2018-03-26T19:11:31.809Z,21.90
2018-03-26T19:13:59.260Z,20.43
2018-03-26T19:16:26.709Z,17.83
2018-03-26T19:18:54.926Z,19.70
2018-03-26T19:21:22.384Z,25.50
2018-03-26T19:23:49.841Z,19.30
2018-03-26T19:26:17.300Z,18.20
2018-03-26T19:28:45.582Z,18.03
2018-03-26T19:31:13.042Z,21.00
2018-03-26T19:33:40.496Z,23.13
2018-03-26T19:36:07.951Z,27.10
2018-03-26T19:38:35.410Z,23.33
2018-03-26T19:41:02.857Z,19.57
2018-03-26T19:43:30.321Z,25.30
2018-03-26T19:45:57.769Z,19.70
2018-03-26T19:48:26.001Z,19.97
2018-03-26T19:50:53.500Z,27.63
2018-03-26T19:53:20.918Z,22.37
2018-03-26T19:55:48.373Z,24.10
2018-03-26T19:58:16.584Z,22.30
2018-03-26T20:00:44.049Z,20.53
2018-03-26T20:03:11.509Z,19.90
2018-03-26T20:05:38.961Z,22.33
2018-03-26T20:08:07.189Z,19.30
2018-03-26T20:10:34.653Z,19.60
2018-03-26T20:13:02.114Z,26.43
2018-03-26T20:15:29.598Z,23.87
2018-03-26T20:17:57.086Z,21.20
2018-03-26T20:20:24.572Z,24.90
2018-03-26T20:22:52.013Z,25.23
2018-03-26T20:25:19.488Z,21.33
2018-03-26T20:27:47.945Z,22.20
2018-03-26T20:30:16.175Z,24.40
2018-03-26T20:32:43.645Z,25.63
2018-03-26T20:35:11.124Z,21.70
2018-03-26T20:37:38.582Z,29.60
2018-03-26T20:40:06.167Z,25.83
2018-03-26T20:42:33.604Z,23.90
2018-03-26T20:45:01.068Z,24.83
2018-03-26T20:47:28.533Z,24.20
2018-03-26T20:49:55.989Z,23.50
2018-03-26T20:52:23.476Z,25.33
2018-03-26T20:54:50.939Z,27.27
2018-03-26T20:57:18.511Z,27.63
2018-03-26T20:59:45.953Z,30.27
2018-03-26T21:02:13.448Z,28.00
2018-03-26T21:04:40.928Z,23.07
2018-03-26T21:07:08.397Z,28.67
2018-03-26T21:09:35.859Z,25.57
2018-03-26T21:12:03.331Z,23.40
2018-03-26T21:14:30.831Z,27.73
2018-03-26T21:16:58.600Z,24.83
2018-03-26T21:19:26.072Z,27.80
2018-03-26T21:21:53.556Z,23.93
2018-03-26T21:24:21.093Z,32.37
2018-03-26T21:26:48.560Z,26.50
2018-03-26T21:29:16.020Z,31.93
2018-03-26T21:31:43.486Z,26.60
2018-03-26T21:34:11.701Z,31.53
2018-03-26T21:36:39.178Z,25.50
2018-03-26T21:39:06.625Z,26.33
2018-03-26T21:41:34.092Z,28.93
2018-03-26T21:44:01.550Z,28.97
2018-03-26T21:46:29.005Z,28.23
2018-03-26T21:48:57.241Z,25.57
2018-03-26T21:51:24.710Z,31.67
2018-03-26T21:53:52.180Z,28.50
2018-03-26T21:56:19.622Z,26.37
2018-03-26T21:58:47.964Z,28.20
2018-03-26T22:01:15.416Z,26.50
2018-03-26T22:03:42.913Z,26.90
2018-03-26T22:06:10.383Z,31.53
2018-03-26T22:08:37.853Z,32.00
2018-03-26T22:11:05.322Z,33.30
2018-03-26T22:13:32.774Z,29.60
2018-03-26T22:16:00.224Z,26.93
2018-03-26T22:18:27.700Z,24.97
2018-03-26T22:20:55.153Z,31.20
2018-03-26T22:23:22.624Z,28.47
2018-03-26T22:25:50.730Z,27.27
2018-03-26T22:28:18.206Z,30.07
2018-03-26T22:30:45.718Z,29.10
2018-03-26T22:33:13.268Z,28.40
2018-03-26T22:35:40.714Z,26.97
2018-03-26T22:38:08.173Z,27.07
2018-03-26T22:40:35.675Z,23.57
2018-03-26T22:43:03.925Z,24.67
2018-03-26T22:45:31.404Z,25.70
2018-03-26T22:47:58.860Z,25.63
2018-03-26T22:50:26.344Z,28.23
2018-03-26T22:52:53.801Z,31.30
2018-03-26T22:55:21.288Z,25.80
2018-03-26T22:57:48.777Z,32.33
2018-03-26T23:00:16.363Z,26.47
2018-03-26T23:02:43.813Z,27.73
2018-03-26T23:05:11.284Z,32.50
2018-03-26T23:07:38.799Z,36.20
2018-03-26T23:10:07.021Z,27.27
2018-03-26T23:12:34.481Z,30.50
2018-03-26T23:15:01.976Z,36.00
2018-03-26T23:17:29.430Z,26.83
2018-03-26T23:19:56.900Z,31.43
2018-03-26T23:22:36.215Z,31.80
2018-03-26T23:25:03.684Z,27.67
2018-03-26T23:27:31.139Z,32.73
2018-03-26T23:29:59.360Z,33.13
2018-03-26T23:32:26.846Z,32.07
2018-03-26T23:34:54.307Z,33.30
2018-03-26T23:37:21.767Z,35.63
2018-03-26T23:39:49.233Z,33.80
2018-03-26T23:42:16.703Z,33.53
2018-03-26T23:44:44.158Z,38.50
2018-03-26T23:47:11.624Z,30.07
2018-03-26T23:49:39.063Z,30.73
2018-03-26T23:52:06.532Z,26.93
2018-03-26T23:54:33.985Z,30.20
2018-03-26T23:57:01.453Z,32.03
2018-03-26T23:59:28.896Z,28.40
